createdAt,value
2022-09-04T00:00:16.054Z,8.53
2022-09-04T00:03:18.114Z,7.10
2022-09-04T00:05:48.976Z,7.50
2022-09-04T00:08:30.650Z,8.00
2022-09-04T00:11:24.933Z,8.67
2022-09-04T00:14:05.413Z,8.17
2022-09-04T00:16:49.067Z,8.27
2022-09-04T00:19:36.457Z,9.20
2022-09-04T00:22:19.709Z,9.10
2022-09-04T00:25:07.871Z,9.17
2022-09-04T00:27:45.779Z,8.20
2022-09-04T00:30:20.755Z,8.60
2022-09-04T00:32:51.904Z,9.13
2022-09-04T00:35:41.365Z,8.47
2022-09-04T00:38:29.114Z,8.60
2022-09-04T00:40:59.477Z,9.80
2022-09-04T00:43:41.737Z,9.33
2022-09-04T00:46:23.871Z,8.20
2022-09-04T00:49:05.551Z,8.80
2022-09-04T00:51:53.663Z,8.97
2022-09-04T00:54:59.666Z,8.63
2022-09-04T00:57:49.818Z,8.63
2022-09-04T01:00:36.219Z,9.67
2022-09-04T01:03:30.526Z,9.83
2022-09-04T01:06:40.661Z,9.40
2022-09-04T01:09:36.986Z,8.70
2022-09-04T01:12:21.542Z,8.27
2022-09-04T01:15:14.905Z,8.77
2022-09-04T01:18:01.099Z,8.33
2022-09-04T01:21:14.362Z,8.70
2022-09-04T01:24:05.066Z,8.70
2022-09-04T01:26:43.956Z,9.83
2022-09-04T01:29:24.961Z,9.53
2022-09-04T01:32:02.144Z,9.67
2022-09-04T01:35:22.817Z,9.60
2022-09-04T01:38:33.523Z,10.13
2022-09-04T01:41:12.407Z,9.63
2022-09-04T01:43:43.649Z,9.80
2022-09-04T01:46:41.484Z,9.20
2022-09-04T01:49:32.653Z,10.73
2022-09-04T01:52:12.182Z,10.43
2022-09-04T01:55:07.582Z,10.93
2022-09-04T01:57:37.806Z,10.93
2022-09-04T02:00:16.746Z,11.03
2022-09-04T02:03:00.637Z,10.47
2022-09-04T02:05:45.970Z,11.07
2022-09-04T02:08:55.461Z,10.40
2022-09-04T02:11:30.067Z,9.63
2022-09-04T02:14:16.050Z,10.57
2022-09-04T02:17:12.906Z,10.70
2022-09-04T02:19:52.033Z,10.07
2022-09-04T02:22:28.930Z,10.10
2022-09-04T02:25:19.712Z,10.07
2022-09-04T02:28:36.219Z,10.60
2022-09-04T02:31:33.278Z,12.30
2022-09-04T02:34:27.713Z,9.27
2022-09-04T02:37:17.440Z,11.37
2022-09-04T02:40:15.666Z,10.53
2022-09-04T02:43:04.467Z,10.07
2022-09-04T02:45:47.297Z,10.50
2022-09-04T02:48:45.768Z,11.50
2022-09-04T02:51:47.838Z,10.87
2022-09-04T02:54:41.011Z,10.43
2022-09-04T02:57:40.267Z,9.70
2022-09-04T03:00:22.159Z,9.33
2022-09-04T03:03:16.338Z,10.53
2022-09-04T03:05:53.460Z,10.70
2022-09-04T03:08:38.921Z,10.40
2022-09-04T03:11:15.387Z,10.83
2022-09-04T03:14:14.011Z,11.23
2022-09-04T03:17:07.628Z,11.13
2022-09-04T03:19:52.032Z,10.03
2022-09-04T03:22:28.283Z,10.53
2022-09-04T03:25:03.265Z,9.93
2022-09-04T03:27:38.604Z,10.30
2022-09-04T03:30:15.819Z,10.53
2022-09-04T03:33:06.753Z,9.83
2022-09-04T03:35:41.089Z,9.83
2022-09-04T03:38:35.293Z,10.83
2022-09-04T03:41:33.984Z,9.50
2022-09-04T03:44:16.851Z,10.10
2022-09-04T03:47:45.023Z,11.10
2022-09-04T03:50:52.638Z,11.17
2022-09-04T03:53:50.407Z,11.57
2022-09-04T03:56:42.149Z,10.90
2022-09-04T03:59:18.708Z,11.60
2022-09-04T04:01:52.824Z,11.23
2022-09-04T04:04:43.312Z,10.87
2022-09-04T04:07:28.484Z,10.37
2022-09-04T04:10:22.775Z,10.77
2022-09-04T04:13:01.885Z,10.87
2022-09-04T04:15:57.652Z,11.10
2022-09-04T04:18:50.781Z,10.57
2022-09-04T04:21:57.710Z,9.30
2022-09-04T04:24:55.772Z,10.33
2022-09-04T04:28:05.433Z,10.77
2022-09-04T04:30:55.345Z,10.60
2022-09-04T04:33:44.671Z,11.47
2022-09-04T04:36:36.386Z,10.17
2022-09-04T04:39:16.863Z,11.53
2022-09-04T04:42:11.089Z,11.63
2022-09-04T04:45:29.260Z,12.40
2022-09-04T04:48:37.296Z,11.67
2022-09-04T04:51:28.825Z,11.00
2022-09-04T04:54:09.972Z,11.20
2022-09-04T04:56:53.778Z,11.63
2022-09-04T04:59:56.415Z,11.63
2022-09-04T05:02:36.102Z,11.67
2022-09-04T05:05:44.206Z,12.77
2022-09-04T05:08:41.682Z,12.03
2022-09-04T05:11:49.429Z,12.63
2022-09-04T05:14:54.776Z,12.33
2022-09-04T05:17:32.669Z,12.50
2022-09-04T05:20:32.394Z,12.50
2022-09-04T05:24:18.388Z,12.13
2022-09-04T05:26:36.058Z,11.90
2022-09-04T05:29:47.023Z,11.83
2022-09-04T05:33:01.038Z,12.83
2022-09-04T05:35:58.973Z,12.73
2022-09-04T05:38:52.002Z,12.53
2022-09-04T05:41:56.956Z,12.57
2022-09-04T05:44:40.667Z,13.30
2022-09-04T05:47:34.135Z,12.63
2022-09-04T05:50:22.204Z,13.97
2022-09-04T05:53:25.810Z,13.63
2022-09-04T05:56:05.556Z,13.57
2022-09-04T05:58:53.363Z,13.53
2022-09-04T06:01:56.019Z,14.27
2022-09-04T06:04:56.067Z,13.40
2022-09-04T06:08:02.729Z,14.97
2022-09-04T06:10:58.897Z,16.20
2022-09-04T06:14:05.634Z,16.47
2022-09-04T06:17:37.563Z,17.50
2022-09-04T06:20:19.954Z,17.23
2022-09-04T06:23:21.506Z,17.77
2022-09-04T06:26:05.117Z,17.50
2022-09-04T06:29:06.098Z,17.90
2022-09-04T06:31:47.955Z,17.90
2022-09-04T06:34:47.375Z,17.03
2022-09-04T06:37:39.294Z,16.10
2022-09-04T06:40:30.881Z,14.23
2022-09-04T06:43:22.114Z,13.45
2022-09-04T06:46:33.469Z,11.98
2022-09-04T06:49:37.837Z,11.50
2022-09-04T06:52:45.620Z,10.93
2022-09-04T06:55:35.074Z,10.57
2022-09-04T06:58:06.769Z,10.32
2022-09-04T07:01:02.167Z,9.35
2022-09-04T07:03:49.900Z,9.30
2022-09-04T07:06:54.935Z,9.73
2022-09-04T07:10:09.832Z,9.80
2022-09-04T07:13:00.493Z,10.40
2022-09-04T07:16:02.854Z,10.43
2022-09-04T07:22:31.708Z,10.52
2022-09-04T07:25:30.435Z,9.60
2022-09-04T07:28:32.423Z,10.15
2022-09-04T07:31:53.730Z,11.07
2022-09-04T07:35:14.154Z,10.95
2022-09-04T07:41:46.728Z,10.95
2022-09-04T07:44:33.152Z,10.60
2022-09-04T07:47:18.745Z,11.35
2022-09-04T07:50:17.439Z,11.80
2022-09-04T07:53:22.492Z,12.95
2022-09-04T07:55:53.800Z,11.60
2022-09-04T07:59:11.246Z,11.27
2022-09-04T08:02:18.197Z,10.80
2022-09-04T08:05:29.511Z,10.52
2022-09-04T08:08:13.761Z,11.40
2022-09-04T08:14:21.437Z,10.95
2022-09-04T08:17:48.750Z,11.10
2022-09-04T08:20:49.460Z,10.48
2022-09-04T08:23:19.081Z,10.20
2022-09-04T08:26:04.772Z,10.43
2022-09-04T08:28:58.695Z,10.43
2022-09-04T08:31:32.822Z,11.35
2022-09-04T08:34:35.866Z,10.82
2022-09-04T08:37:40.369Z,10.55
2022-09-04T08:40:30.031Z,10.40
2022-09-04T08:43:32.924Z,10.85
2022-09-04T08:46:34.263Z,10.48
2022-09-04T08:49:55.112Z,11.10
2022-09-04T08:52:53.148Z,10.45
2022-09-04T08:55:57.489Z,10.90
2022-09-04T08:59:02.810Z,11.15
2022-09-04T09:02:04.929Z,11.00
2022-09-04T09:04:49.654Z,9.95
2022-09-04T09:07:37.766Z,9.25
2022-09-04T09:10:34.360Z,9.75
2022-09-04T09:13:31.397Z,8.77
2022-09-04T09:16:18.970Z,9.38
2022-09-04T09:19:08.058Z,9.25
2022-09-04T09:22:06.959Z,8.90
2022-09-04T09:25:06.293Z,8.70
2022-09-04T09:28:03.095Z,9.15
2022-09-04T09:31:07.934Z,8.45
2022-09-04T09:33:58.593Z,8.35
2022-09-04T09:36:51.488Z,8.82
2022-09-04T09:39:41.791Z,7.15
2022-09-04T09:42:15.489Z,8.02
2022-09-04T09:44:53.785Z,7.20
2022-09-04T09:48:01.230Z,7.03
2022-09-04T09:50:46.353Z,7.68
2022-09-04T09:53:54.680Z,7.80
2022-09-04T09:57:01.900Z,8.52
2022-09-04T10:00:16.208Z,8.25
2022-09-04T10:03:02.771Z,7.43
2022-09-04T10:05:48.752Z,7.03
2022-09-04T10:08:45.870Z,7.60
2022-09-04T10:11:39.869Z,6.78
2022-09-04T10:14:33.977Z,6.57
2022-09-04T10:18:22.610Z,6.15
2022-09-04T10:20:55.800Z,6.10
2022-09-04T10:23:41.907Z,6.10
2022-09-04T10:26:39.447Z,4.78
2022-09-04T10:29:34.242Z,5.47
2022-09-04T10:32:25.052Z,5.38
2022-09-04T10:35:37.234Z,6.75
2022-09-04T10:38:37.883Z,5.32
2022-09-04T10:41:37.828Z,4.65
2022-09-04T10:44:30.760Z,4.78
2022-09-04T10:47:17.047Z,5.18
2022-09-04T10:50:04.784Z,4.70
2022-09-04T10:52:44.219Z,5.03
2022-09-04T10:55:13.962Z,5.00
2022-09-04T10:57:50.401Z,4.97
2022-09-04T11:00:51.230Z,5.32
2022-09-04T11:03:46.653Z,4.63
2022-09-04T11:06:37.633Z,4.57
2022-09-04T11:12:23.481Z,4.80
2022-09-04T11:15:15.513Z,4.72
2022-09-04T11:18:25.966Z,4.70
2022-09-04T11:25:19.285Z,4.95
2022-09-04T11:31:14.657Z,5.05
2022-09-04T11:34:43.185Z,4.15
2022-09-04T11:37:48.234Z,4.45
2022-09-04T11:40:58.581Z,5.03
2022-09-04T11:44:19.392Z,4.38
2022-09-04T11:47:09.368Z,4.28
2022-09-04T11:50:11.045Z,4.50
2022-09-04T11:53:05.525Z,4.75
2022-09-04T12:02:27.904Z,4.07
2022-09-04T12:06:00.924Z,4.20
2022-09-04T12:08:49.968Z,3.38
2022-09-04T12:12:09.741Z,3.58
2022-09-04T12:15:30.448Z,3.45
2022-09-04T12:19:02.214Z,3.47
2022-09-04T12:21:59.983Z,3.85
2022-09-04T12:24:52.418Z,3.40
2022-09-04T12:27:43.015Z,3.03
2022-09-04T12:30:54.832Z,3.05
2022-09-04T12:33:57.192Z,3.53
2022-09-04T12:36:44.001Z,3.55
2022-09-04T12:39:40.313Z,3.22
2022-09-04T12:42:28.580Z,3.05
2022-09-04T12:45:06.542Z,2.78
2022-09-04T12:47:58.679Z,3.13
2022-09-04T12:50:51.685Z,3.10
2022-09-04T12:53:41.251Z,3.22
2022-09-04T12:56:40.103Z,3.15
2022-09-04T13:03:01.541Z,3.38
2022-09-04T13:05:49.338Z,3.17
2022-09-04T13:08:45.976Z,3.33
2022-09-04T13:11:36.370Z,3.45
2022-09-04T13:14:42.162Z,3.00
2022-09-04T13:17:32.758Z,3.33
2022-09-04T13:20:36.534Z,3.50
2022-09-04T13:23:46.490Z,3.25
2022-09-04T13:26:34.724Z,3.38
2022-09-04T13:30:03.054Z,3.25
2022-09-04T13:32:34.615Z,3.22
2022-09-04T13:35:20.906Z,3.20
2022-09-04T13:38:10.376Z,3.47
2022-09-04T13:41:30.600Z,3.15
2022-09-04T13:44:38.991Z,2.80
2022-09-04T13:47:13.251Z,3.20
2022-09-04T13:50:26.135Z,3.20
2022-09-04T13:56:07.719Z,3.20
2022-09-04T13:58:51.886Z,3.78
2022-09-04T14:01:34.915Z,3.40
2022-09-04T14:04:32.875Z,3.13
2022-09-04T14:07:47.025Z,3.70
2022-09-04T14:10:33.367Z,3.25
2022-09-04T14:13:40.196Z,3.38
2022-09-04T14:16:20.015Z,3.50
2022-09-04T14:19:52.101Z,3.15
2022-09-04T14:23:12.694Z,3.28
2022-09-04T14:26:27.272Z,3.28
2022-09-04T14:29:19.486Z,3.28
2022-09-04T14:32:25.376Z,2.90
2022-09-04T14:35:48.006Z,2.92
2022-09-04T14:41:46.667Z,3.10
2022-09-04T14:45:34.889Z,3.15
2022-09-04T14:48:07.304Z,2.55
2022-09-04T14:50:52.825Z,2.95
2022-09-04T14:53:37.180Z,2.60
2022-09-04T14:59:13.767Z,6.82
2022-09-04T15:02:11.434Z,3.90
2022-09-04T15:05:15.883Z,3.75
2022-09-04T15:10:55.238Z,2.90
2022-09-04T15:13:36.164Z,3.70
2022-09-04T15:16:35.404Z,2.97
2022-09-04T15:19:53.856Z,3.17
2022-09-04T15:22:40.370Z,3.05
2022-09-04T15:26:02.198Z,2.58
2022-09-04T15:29:23.929Z,3.30
2022-09-04T15:32:04.663Z,2.85
2022-09-04T15:34:48.734Z,3.10
2022-09-04T15:40:59.718Z,2.92
2022-09-04T15:44:14.078Z,2.70
2022-09-04T15:49:01.309Z,3.00
2022-09-04T15:51:22.111Z,3.20
2022-09-04T15:54:29.999Z,2.92
2022-09-04T15:57:59.867Z,3.33
2022-09-04T16:01:33.439Z,3.65
2022-09-04T16:04:52.932Z,3.00
2022-09-04T16:10:58.668Z,3.60
2022-09-04T16:14:02.312Z,3.67
2022-09-04T16:16:55.577Z,3.05
2022-09-04T16:19:58.018Z,3.22
2022-09-04T16:22:51.301Z,3.53
2022-09-04T16:25:55.187Z,2.88
2022-09-04T16:31:44.674Z,2.72
2022-09-04T16:34:12.719Z,2.45
2022-09-04T16:36:53.245Z,2.78
2022-09-04T16:39:30.655Z,3.08
2022-09-04T16:42:40.690Z,2.60
2022-09-04T16:45:17.559Z,2.60
2022-09-04T16:48:34.881Z,2.78
2022-09-04T16:51:41.067Z,2.10
2022-09-04T16:54:29.041Z,2.70
2022-09-04T16:57:24.279Z,2.35
2022-09-04T17:00:11.491Z,2.83
2022-09-04T17:03:08.859Z,2.60
2022-09-04T17:05:53.920Z,2.83
2022-09-04T17:09:05.031Z,2.70
2022-09-04T17:11:58.929Z,2.35
2022-09-04T17:14:39.968Z,2.80
2022-09-04T17:29:16.891Z,3.83
2022-09-04T17:29:18.804Z,3.08
2022-09-04T17:29:58.327Z,2.85
2022-09-04T17:36:16.353Z,3.08
2022-09-04T17:40:41.151Z,3.00
2022-09-04T17:45:44.307Z,3.17
2022-09-04T17:48:30.183Z,3.65
2022-09-04T17:51:07.484Z,4.22
2022-09-04T17:53:39.991Z,3.15
2022-09-04T17:56:28.347Z,4.43
2022-09-04T17:59:32.109Z,3.30
2022-09-04T18:02:15.314Z,3.20
2022-09-04T18:04:56.281Z,3.38
2022-09-04T18:08:08.252Z,2.75
2022-09-04T18:11:01.517Z,3.10
2022-09-04T18:13:51.122Z,2.45
2022-09-04T18:16:39.852Z,3.88
2022-09-04T18:19:55.020Z,2.55
2022-09-04T18:23:10.910Z,2.45
2022-09-04T18:32:36.315Z,2.90
2022-09-04T18:37:20.785Z,3.45
2022-09-04T18:37:22.456Z,3.10
2022-09-04T18:38:53.765Z,3.08
2022-09-04T18:50:26.164Z,2.55
2022-09-04T18:50:28.771Z,2.95
2022-09-04T18:50:44.667Z,2.85
2022-09-04T18:51:30.699Z,2.67
2022-09-04T18:54:11.245Z,2.25
2022-09-04T18:56:47.494Z,2.63
2022-09-04T18:59:22.466Z,3.13
2022-09-04T19:02:01.758Z,2.67
2022-09-04T19:04:51.895Z,2.80
2022-09-04T19:07:41.752Z,2.53
2022-09-04T19:10:16.772Z,2.95
2022-09-04T19:12:49.968Z,2.65
2022-09-04T19:15:43.810Z,3.00
2022-09-04T19:18:30.356Z,2.67
2022-09-04T19:21:14.140Z,3.30
2022-09-04T19:23:57.808Z,3.72
2022-09-04T19:26:44.745Z,3.85
2022-09-04T19:29:12.364Z,3.17
2022-09-04T19:32:05.079Z,3.15
2022-09-04T19:34:46.722Z,3.47
2022-09-04T19:38:55.861Z,3.40
2022-09-04T19:46:02.489Z,3.42
2022-09-04T19:46:15.173Z,3.60
2022-09-04T19:46:27.958Z,3.78
2022-09-04T19:49:50.960Z,3.90
2022-09-04T19:53:24.059Z,3.45
2022-09-04T19:55:46.680Z,3.85
2022-09-04T19:58:34.512Z,3.58
2022-09-04T20:01:05.654Z,4.20
2022-09-04T20:03:35.961Z,5.13
2022-09-04T20:06:20.689Z,4.40
2022-09-04T20:08:55.615Z,4.93
2022-09-04T20:11:49.236Z,5.10
2022-09-04T20:14:30.389Z,4.32
2022-09-04T20:17:31.519Z,4.50
2022-09-04T20:20:09.180Z,4.30
2022-09-04T20:22:49.412Z,4.15
2022-09-04T20:25:40.335Z,4.38
2022-09-04T20:28:31.608Z,4.25
2022-09-04T20:31:35.812Z,4.40
2022-09-04T20:34:27.352Z,5.57
2022-09-04T20:37:27.303Z,6.55
2022-09-04T20:40:44.796Z,5.78
2022-09-04T20:43:46.261Z,5.60
2022-09-04T20:49:39.027Z,5.85
2022-09-04T20:53:05.827Z,5.30
2022-09-04T20:53:09.613Z,5.25
2022-09-04T20:57:08.939Z,4.80
2022-09-04T21:03:06.760Z,4.93
2022-09-04T21:03:20.597Z,4.97
2022-09-04T21:05:33.694Z,4.82
2022-09-04T21:08:11.437Z,5.25
2022-09-04T21:11:01.580Z,5.00
2022-09-04T21:13:50.006Z,5.60
2022-09-04T21:16:30.748Z,5.15
2022-09-04T21:19:34.249Z,5.28
2022-09-04T21:22:34.267Z,5.95
2022-09-04T21:25:18.527Z,5.60
2022-09-04T21:27:59.041Z,5.75
2022-09-04T21:34:01.677Z,5.82
2022-09-04T21:36:49.806Z,5.45
2022-09-04T21:39:38.679Z,5.43
2022-09-04T21:42:43.601Z,5.80
2022-09-04T21:45:17.507Z,5.68
2022-09-04T21:48:18.244Z,5.65
2022-09-04T21:51:23.312Z,6.15
2022-09-04T21:54:38.055Z,5.68
2022-09-04T22:02:27.274Z,6.47
2022-09-04T22:02:35.463Z,6.07
2022-09-04T22:04:37.675Z,5.68
2022-09-04T22:13:29.711Z,5.85
2022-09-04T22:13:34.298Z,6.43
2022-09-04T22:14:29.362Z,6.18
2022-09-04T22:17:26.948Z,5.93
2022-09-04T22:20:13.904Z,6.40
2022-09-04T22:23:05.588Z,6.70
2022-09-04T22:26:23.321Z,7.07
2022-09-04T22:29:06.226Z,7.68
2022-09-04T22:31:52.838Z,7.30
2022-09-04T22:35:01.086Z,6.95
2022-09-04T22:38:18.176Z,6.80
2022-09-04T22:41:40.813Z,8.07
2022-09-04T22:44:50.176Z,7.95
2022-09-04T22:47:29.021Z,8.10
2022-09-04T22:50:21.183Z,7.72
2022-09-04T22:53:40.842Z,6.38
2022-09-04T22:56:24.190Z,5.72
2022-09-04T22:59:27.214Z,6.30
2022-09-04T23:02:54.132Z,6.10
2022-09-04T23:07:29.310Z,5.50
2022-09-04T23:13:46.678Z,6.05
2022-09-04T23:13:51.283Z,5.47
2022-09-04T23:15:29.468Z,5.85
2022-09-04T23:20:18.931Z,6.32
2022-09-04T23:26:44.990Z,6.80
2022-09-04T23:26:49.805Z,5.43
2022-09-04T23:28:27.264Z,6.10
2022-09-04T23:31:27.461Z,5.83
2022-09-04T23:34:17.470Z,6.47
2022-09-04T23:36:58.488Z,6.07
2022-09-04T23:39:43.724Z,6.00
2022-09-04T23:42:36.109Z,6.17
2022-09-04T23:45:27.666Z,5.47
2022-09-04T23:48:39.657Z,6.07
2022-09-04T23:51:41.436Z,6.10
2022-09-04T23:54:45.128Z,6.20
2022-09-04T23:57:30.518Z,6.23
